sensor_id;sensor_type;location;lat;lon;timestamp;P1;durP1;ratioP1;P2;durP2;ratioP2
78875;SDS011;68253;52.506;5.486;2024-03-17T00:02:10;9.48;;;3.17;;
78875;SDS011;68253;52.506;5.486;2024-03-17T00:04:36;10.85;;;3.38;;
78875;SDS011;68253;52.506;5.486;2024-03-17T00:07:03;10.52;;;3.53;;
78875;SDS011;68253;52.506;5.486;2024-03-17T00:09:29;11.05;;;3.35;;
78875;SDS011;68253;52.506;5.486;2024-03-17T00:11:55;10.27;;;2.97;;
78875;SDS011;68253;52.506;5.486;2024-03-17T00:14:21;11.25;;;3.50;;
78875;SDS011;68253;52.506;5.486;2024-03-17T00:16:48;10.05;;;3.53;;
78875;SDS011;68253;52.506;5.486;2024-03-17T00:19:14;11.88;;;4.00;;
78875;SDS011;68253;52.506;5.486;2024-03-17T00:21:42;10.45;;;3.72;;
78875;SDS011;68253;52.506;5.486;2024-03-17T00:24:09;10.90;;;3.80;;
78875;SDS011;68253;52.506;5.486;2024-03-17T00:26:36;12.68;;;4.15;;
78875;SDS011;68253;52.506;5.486;2024-03-17T00:29:02;10.50;;;4.07;;
78875;SDS011;68253;52.506;5.486;2024-03-17T00:31:28;9.80;;;4.03;;
78875;SDS011;68253;52.506;5.486;2024-03-17T00:33:54;10.18;;;4.30;;
78875;SDS011;68253;52.506;5.486;2024-03-17T00:36:21;10.02;;;4.00;;
78875;SDS011;68253;52.506;5.486;2024-03-17T00:38:47;10.40;;;3.80;;
78875;SDS011;68253;52.506;5.486;2024-03-17T00:41:13;11.95;;;3.97;;
78875;SDS011;68253;52.506;5.486;2024-03-17T00:43:39;9.02;;;3.65;;
78875;SDS011;68253;52.506;5.486;2024-03-17T00:46:05;9.82;;;3.63;;
78875;SDS011;68253;52.506;5.486;2024-03-17T00:48:32;9.20;;;3.60;;
78875;SDS011;68253;52.506;5.486;2024-03-17T00:50:58;10.13;;;3.67;;
78875;SDS011;68253;52.506;5.486;2024-03-17T00:53:24;11.07;;;3.83;;
78875;SDS011;68253;52.506;5.486;2024-03-17T00:55:51;10.30;;;3.38;;
78875;SDS011;68253;52.506;5.486;2024-03-17T00:58:19;12.57;;;4.15;;
78875;SDS011;68253;52.506;5.486;2024-03-17T01:00:48;9.45;;;3.58;;
78875;SDS011;68253;52.506;5.486;2024-03-17T01:03:15;11.15;;;3.40;;
78875;SDS011;68253;52.506;5.486;2024-03-17T01:05:41;9.02;;;3.33;;
78875;SDS011;68253;52.506;5.486;2024-03-17T01:08:10;11.40;;;3.25;;
78875;SDS011;68253;52.506;5.486;2024-03-17T01:10:37;11.85;;;3.78;;
78875;SDS011;68253;52.506;5.486;2024-03-17T01:13:07;9.52;;;3.53;;
78875;SDS011;68253;52.506;5.486;2024-03-17T01:15:35;11.02;;;3.40;;
78875;SDS011;68253;52.506;5.486;2024-03-17T01:18:02;10.80;;;3.80;;
78875;SDS011;68253;52.506;5.486;2024-03-17T01:20:30;9.48;;;3.45;;
78875;SDS011;68253;52.506;5.486;2024-03-17T01:23:06;9.07;;;3.30;;
78875;SDS011;68253;52.506;5.486;2024-03-17T01:25:33;9.05;;;3.10;;
78875;SDS011;68253;52.506;5.486;2024-03-17T01:28:03;8.93;;;3.10;;
78875;SDS011;68253;52.506;5.486;2024-03-17T01:30:30;9.60;;;3.10;;
78875;SDS011;68253;52.506;5.486;2024-03-17T01:32:58;9.02;;;2.78;;
78875;SDS011;68253;52.506;5.486;2024-03-17T01:35:25;10.02;;;2.75;;
78875;SDS011;68253;52.506;5.486;2024-03-17T01:37:52;9.30;;;2.60;;
78875;SDS011;68253;52.506;5.486;2024-03-17T01:40:18;8.90;;;2.40;;
78875;SDS011;68253;52.506;5.486;2024-03-17T01:42:44;7.80;;;2.40;;
78875;SDS011;68253;52.506;5.486;2024-03-17T01:47:42;5.60;;;1.70;;
78875;SDS011;68253;52.506;5.486;2024-03-17T01:50:09;5.13;;;1.50;;
78875;SDS011;68253;52.506;5.486;2024-03-17T01:52:38;7.63;;;1.52;;
78875;SDS011;68253;52.506;5.486;2024-03-17T01:55:05;6.45;;;1.40;;
78875;SDS011;68253;52.506;5.486;2024-03-17T01:57:32;4.95;;;1.25;;
78875;SDS011;68253;52.506;5.486;2024-03-17T01:59:59;7.38;;;1.40;;
78875;SDS011;68253;52.506;5.486;2024-03-17T02:02:25;6.72;;;1.38;;
78875;SDS011;68253;52.506;5.486;2024-03-17T02:04:51;6.10;;;1.27;;
78875;SDS011;68253;52.506;5.486;2024-03-17T02:07:18;4.60;;;1.20;;
78875;SDS011;68253;52.506;5.486;2024-03-17T02:09:44;7.07;;;1.17;;
78875;SDS011;68253;52.506;5.486;2024-03-17T02:12:10;6.03;;;1.40;;
78875;SDS011;68253;52.506;5.486;2024-03-17T02:14:37;8.18;;;1.52;;
78875;SDS011;68253;52.506;5.486;2024-03-17T02:17:04;4.70;;;1.20;;
78875;SDS011;68253;52.506;5.486;2024-03-17T02:19:30;7.05;;;1.23;;
78875;SDS011;68253;52.506;5.486;2024-03-17T02:21:56;5.68;;;1.15;;
78875;SDS011;68253;52.506;5.486;2024-03-17T02:24:22;6.95;;;1.63;;
78875;SDS011;68253;52.506;5.486;2024-03-17T02:26:48;6.55;;;1.60;;
78875;SDS011;68253;52.506;5.486;2024-03-17T02:29:15;5.75;;;1.20;;
78875;SDS011;68253;52.506;5.486;2024-03-17T02:31:41;5.93;;;1.23;;
78875;SDS011;68253;52.506;5.486;2024-03-17T02:34:07;7.35;;;1.40;;
78875;SDS011;68253;52.506;5.486;2024-03-17T02:36:33;4.18;;;1.13;;
78875;SDS011;68253;52.506;5.486;2024-03-17T02:38:59;7.45;;;1.40;;
78875;SDS011;68253;52.506;5.486;2024-03-17T02:41:44;4.57;;;1.00;;
78875;SDS011;68253;52.506;5.486;2024-03-17T02:44:11;5.45;;;1.30;;
78875;SDS011;68253;52.506;5.486;2024-03-17T02:46:37;7.50;;;1.10;;
78875;SDS011;68253;52.506;5.486;2024-03-17T02:49:03;7.47;;;1.30;;
78875;SDS011;68253;52.506;5.486;2024-03-17T02:51:30;6.53;;;1.13;;
78875;SDS011;68253;52.506;5.486;2024-03-17T02:53:56;5.57;;;0.90;;
78875;SDS011;68253;52.506;5.486;2024-03-17T02:56:25;4.68;;;0.85;;
78875;SDS011;68253;52.506;5.486;2024-03-17T02:58:51;4.03;;;0.90;;
78875;SDS011;68253;52.506;5.486;2024-03-17T03:01:17;5.30;;;0.90;;
78875;SDS011;68253;52.506;5.486;2024-03-17T03:03:45;2.72;;;0.75;;
78875;SDS011;68253;52.506;5.486;2024-03-17T03:06:11;3.60;;;0.90;;
78875;SDS011;68253;52.506;5.486;2024-03-17T03:08:39;6.15;;;1.13;;
78875;SDS011;68253;52.506;5.486;2024-03-17T03:11:07;7.15;;;1.02;;
78875;SDS011;68253;52.506;5.486;2024-03-17T03:13:37;6.32;;;1.50;;
78875;SDS011;68253;52.506;5.486;2024-03-17T03:16:05;5.70;;;1.00;;
78875;SDS011;68253;52.506;5.486;2024-03-17T03:18:34;3.00;;;0.73;;
78875;SDS011;68253;52.506;5.486;2024-03-17T03:21:00;8.73;;;1.30;;
78875;SDS011;68253;52.506;5.486;2024-03-17T03:23:26;5.15;;;1.10;;
78875;SDS011;68253;52.506;5.486;2024-03-17T03:25:56;5.30;;;0.80;;
78875;SDS011;68253;52.506;5.486;2024-03-17T03:28:29;5.10;;;1.15;;
78875;SDS011;68253;52.506;5.486;2024-03-17T03:30:56;5.18;;;1.10;;
78875;SDS011;68253;52.506;5.486;2024-03-17T03:33:23;4.25;;;0.90;;
78875;SDS011;68253;52.506;5.486;2024-03-17T03:35:50;6.95;;;1.50;;
78875;SDS011;68253;52.506;5.486;2024-03-17T03:38:16;4.55;;;1.10;;
78875;SDS011;68253;52.506;5.486;2024-03-17T03:40:45;5.20;;;1.10;;
78875;SDS011;68253;52.506;5.486;2024-03-17T03:43:13;5.05;;;1.05;;
78875;SDS011;68253;52.506;5.486;2024-03-17T03:45:39;5.35;;;1.05;;
78875;SDS011;68253;52.506;5.486;2024-03-17T03:48:06;7.15;;;1.23;;
78875;SDS011;68253;52.506;5.486;2024-03-17T03:50:37;6.15;;;1.55;;
78875;SDS011;68253;52.506;5.486;2024-03-17T03:53:04;9.38;;;1.45;;
78875;SDS011;68253;52.506;5.486;2024-03-17T03:55:31;3.70;;;1.02;;
78875;SDS011;68253;52.506;5.486;2024-03-17T03:57:57;6.88;;;1.67;;
78875;SDS011;68253;52.506;5.486;2024-03-17T04:00:23;5.70;;;1.25;;
78875;SDS011;68253;52.506;5.486;2024-03-17T04:02:51;7.53;;;1.40;;
78875;SDS011;68253;52.506;5.486;2024-03-17T04:05:18;8.25;;;1.30;;
78875;SDS011;68253;52.506;5.486;2024-03-17T04:07:45;7.25;;;1.75;;
78875;SDS011;68253;52.506;5.486;2024-03-17T04:10:13;8.20;;;1.40;;
78875;SDS011;68253;52.506;5.486;2024-03-17T04:12:39;6.75;;;1.70;;
78875;SDS011;68253;52.506;5.486;2024-03-17T04:15:06;5.47;;;1.40;;
78875;SDS011;68253;52.506;5.486;2024-03-17T04:17:32;6.68;;;1.42;;
78875;SDS011;68253;52.506;5.486;2024-03-17T04:19:59;8.25;;;1.70;;
78875;SDS011;68253;52.506;5.486;2024-03-17T04:22:25;5.40;;;1.20;;
78875;SDS011;68253;52.506;5.486;2024-03-17T04:24:52;5.40;;;1.30;;
78875;SDS011;68253;52.506;5.486;2024-03-17T04:27:22;5.57;;;1.33;;
78875;SDS011;68253;52.506;5.486;2024-03-17T04:29:49;5.63;;;1.55;;
78875;SDS011;68253;52.506;5.486;2024-03-17T04:32:17;7.07;;;1.40;;
78875;SDS011;68253;52.506;5.486;2024-03-17T04:34:43;7.03;;;1.42;;
78875;SDS011;68253;52.506;5.486;2024-03-17T04:37:09;7.35;;;1.50;;
78875;SDS011;68253;52.506;5.486;2024-03-17T04:39:41;9.07;;;1.73;;
78875;SDS011;68253;52.506;5.486;2024-03-17T04:42:11;7.63;;;1.70;;
78875;SDS011;68253;52.506;5.486;2024-03-17T04:44:40;5.40;;;1.40;;
78875;SDS011;68253;52.506;5.486;2024-03-17T04:47:06;7.55;;;1.55;;
78875;SDS011;68253;52.506;5.486;2024-03-17T04:49:36;6.93;;;2.00;;
78875;SDS011;68253;52.506;5.486;2024-03-17T04:52:02;7.53;;;2.05;;
78875;SDS011;68253;52.506;5.486;2024-03-17T04:54:30;8.82;;;1.67;;
78875;SDS011;68253;52.506;5.486;2024-03-17T04:56:57;6.40;;;1.73;;
78875;SDS011;68253;52.506;5.486;2024-03-17T04:59:23;8.48;;;1.90;;
78875;SDS011;68253;52.506;5.486;2024-03-17T05:01:50;6.63;;;1.70;;
78875;SDS011;68253;52.506;5.486;2024-03-17T05:04:17;8.52;;;1.90;;
78875;SDS011;68253;52.506;5.486;2024-03-17T05:06:43;8.60;;;1.92;;
78875;SDS011;68253;52.506;5.486;2024-03-17T05:09:18;5.85;;;1.90;;
78875;SDS011;68253;52.506;5.486;2024-03-17T05:11:44;10.18;;;2.20;;
78875;SDS011;68253;52.506;5.486;2024-03-17T05:14:10;7.50;;;2.03;;
78875;SDS011;68253;52.506;5.486;2024-03-17T05:16:37;9.40;;;2.28;;
78875;SDS011;68253;52.506;5.486;2024-03-17T05:19:03;10.27;;;2.80;;
78875;SDS011;68253;52.506;5.486;2024-03-17T05:21:30;9.73;;;2.53;;
78875;SDS011;68253;52.506;5.486;2024-03-17T05:24:01;12.73;;;2.85;;
78875;SDS011;68253;52.506;5.486;2024-03-17T05:26:27;8.60;;;2.33;;
78875;SDS011;68253;52.506;5.486;2024-03-17T05:28:54;9.05;;;2.30;;
78875;SDS011;68253;52.506;5.486;2024-03-17T05:31:20;8.15;;;2.38;;
78875;SDS011;68253;52.506;5.486;2024-03-17T05:33:47;9.60;;;2.60;;
78875;SDS011;68253;52.506;5.486;2024-03-17T05:36:14;8.73;;;2.40;;
78875;SDS011;68253;52.506;5.486;2024-03-17T05:38:40;10.05;;;2.33;;
78875;SDS011;68253;52.506;5.486;2024-03-17T05:41:08;9.07;;;2.65;;
78875;SDS011;68253;52.506;5.486;2024-03-17T05:43:35;7.28;;;2.28;;
78875;SDS011;68253;52.506;5.486;2024-03-17T05:46:04;8.02;;;2.80;;
78875;SDS011;68253;52.506;5.486;2024-03-17T05:48:34;9.60;;;2.50;;
78875;SDS011;68253;52.506;5.486;2024-03-17T05:51:03;7.40;;;2.25;;
78875;SDS011;68253;52.506;5.486;2024-03-17T05:53:33;9.20;;;2.55;;
78875;SDS011;68253;52.506;5.486;2024-03-17T05:56:01;9.40;;;2.58;;
78875;SDS011;68253;52.506;5.486;2024-03-17T05:58:28;10.48;;;2.83;;
78875;SDS011;68253;52.506;5.486;2024-03-17T06:00:54;9.43;;;3.03;;
78875;SDS011;68253;52.506;5.486;2024-03-17T06:03:21;12.65;;;3.15;;
78875;SDS011;68253;52.506;5.486;2024-03-17T06:05:47;8.07;;;2.80;;
78875;SDS011;68253;52.506;5.486;2024-03-17T06:08:14;7.95;;;2.45;;
78875;SDS011;68253;52.506;5.486;2024-03-17T06:10:47;11.52;;;3.15;;
78875;SDS011;68253;52.506;5.486;2024-03-17T06:13:14;8.93;;;2.47;;
78875;SDS011;68253;52.506;5.486;2024-03-17T06:15:43;9.90;;;3.33;;
78875;SDS011;68253;52.506;5.486;2024-03-17T06:18:11;9.52;;;3.15;;
78875;SDS011;68253;52.506;5.486;2024-03-17T06:20:43;12.07;;;3.20;;
78875;SDS011;68253;52.506;5.486;2024-03-17T06:23:11;10.32;;;3.22;;
78875;SDS011;68253;52.506;5.486;2024-03-17T06:25:41;13.82;;;3.53;;
78875;SDS011;68253;52.506;5.486;2024-03-17T06:28:09;9.00;;;3.00;;
78875;SDS011;68253;52.506;5.486;2024-03-17T06:30:45;10.35;;;3.30;;
78875;SDS011;68253;52.506;5.486;2024-03-17T06:33:20;11.73;;;3.42;;
78875;SDS011;68253;52.506;5.486;2024-03-17T06:35:46;8.52;;;3.03;;
78875;SDS011;68253;52.506;5.486;2024-03-17T06:38:13;8.90;;;3.03;;
78875;SDS011;68253;52.506;5.486;2024-03-17T06:40:41;9.63;;;3.30;;
78875;SDS011;68253;52.506;5.486;2024-03-17T06:43:07;9.55;;;3.35;;
78875;SDS011;68253;52.506;5.486;2024-03-17T06:45:34;9.95;;;3.47;;
78875;SDS011;68253;52.506;5.486;2024-03-17T06:48:00;8.90;;;3.20;;
78875;SDS011;68253;52.506;5.486;2024-03-17T06:50:26;10.43;;;3.47;;
78875;SDS011;68253;52.506;5.486;2024-03-17T06:52:52;12.60;;;4.30;;
78875;SDS011;68253;52.506;5.486;2024-03-17T06:55:18;8.25;;;3.17;;
78875;SDS011;68253;52.506;5.486;2024-03-17T06:57:47;7.55;;;2.90;;
78875;SDS011;68253;52.506;5.486;2024-03-17T07:00:13;9.57;;;3.15;;
78875;SDS011;68253;52.506;5.486;2024-03-17T07:02:40;10.60;;;3.45;;
78875;SDS011;68253;52.506;5.486;2024-03-17T07:05:14;8.75;;;3.08;;
78875;SDS011;68253;52.506;5.486;2024-03-17T07:07:41;10.00;;;3.50;;
78875;SDS011;68253;52.506;5.486;2024-03-17T07:10:08;8.77;;;3.30;;
78875;SDS011;68253;52.506;5.486;2024-03-17T07:12:39;10.88;;;4.22;;
78875;SDS011;68253;52.506;5.486;2024-03-17T07:15:06;10.75;;;3.80;;
78875;SDS011;68253;52.506;5.486;2024-03-17T07:17:32;10.82;;;3.80;;
78875;SDS011;68253;52.506;5.486;2024-03-17T07:19:59;12.25;;;3.80;;
78875;SDS011;68253;52.506;5.486;2024-03-17T07:22:25;9.80;;;3.50;;
78875;SDS011;68253;52.506;5.486;2024-03-17T07:24:52;10.98;;;4.00;;
78875;SDS011;68253;52.506;5.486;2024-03-17T07:27:22;15.38;;;4.03;;
78875;SDS011;68253;52.506;5.486;2024-03-17T07:29:48;10.80;;;3.95;;
78875;SDS011;68253;52.506;5.486;2024-03-17T07:32:14;10.15;;;3.80;;
78875;SDS011;68253;52.506;5.486;2024-03-17T07:34:40;10.90;;;3.90;;
78875;SDS011;68253;52.506;5.486;2024-03-17T07:37:07;11.98;;;3.95;;
78875;SDS011;68253;52.506;5.486;2024-03-17T07:39:33;9.68;;;4.00;;
78875;SDS011;68253;52.506;5.486;2024-03-17T07:41:59;12.70;;;4.03;;
78875;SDS011;68253;52.506;5.486;2024-03-17T07:44:27;11.70;;;4.30;;
78875;SDS011;68253;52.506;5.486;2024-03-17T07:46:59;10.52;;;3.90;;
78875;SDS011;68253;52.506;5.486;2024-03-17T07:49:31;11.23;;;4.03;;
78875;SDS011;68253;52.506;5.486;2024-03-17T07:51:58;10.63;;;3.85;;
78875;SDS011;68253;52.506;5.486;2024-03-17T07:54:24;9.93;;;3.90;;
78875;SDS011;68253;52.506;5.486;2024-03-17T07:56:52;10.35;;;3.97;;
78875;SDS011;68253;52.506;5.486;2024-03-17T07:59:18;11.13;;;4.20;;
78875;SDS011;68253;52.506;5.486;2024-03-17T08:01:44;10.70;;;4.50;;
78875;SDS011;68253;52.506;5.486;2024-03-17T08:04:11;11.95;;;4.50;;
78875;SDS011;68253;52.506;5.486;2024-03-17T08:06:38;11.07;;;4.18;;
78875;SDS011;68253;52.506;5.486;2024-03-17T08:09:06;11.48;;;4.15;;
78875;SDS011;68253;52.506;5.486;2024-03-17T08:11:34;11.23;;;4.68;;
78875;SDS011;68253;52.506;5.486;2024-03-17T08:14:00;12.40;;;5.75;;
78875;SDS011;68253;52.506;5.486;2024-03-17T08:16:27;11.10;;;5.20;;
78875;SDS011;68253;52.506;5.486;2024-03-17T08:18:55;10.85;;;4.78;;
78875;SDS011;68253;52.506;5.486;2024-03-17T08:21:22;11.65;;;4.78;;
78875;SDS011;68253;52.506;5.486;2024-03-17T08:23:48;14.05;;;5.55;;
78875;SDS011;68253;52.506;5.486;2024-03-17T08:26:14;12.45;;;5.10;;
78875;SDS011;68253;52.506;5.486;2024-03-17T08:28:40;10.63;;;4.60;;
78875;SDS011;68253;52.506;5.486;2024-03-17T08:31:06;12.25;;;5.10;;
78875;SDS011;68253;52.506;5.486;2024-03-17T08:33:33;14.38;;;5.13;;
78875;SDS011;68253;52.506;5.486;2024-03-17T08:36:03;10.90;;;4.90;;
78875;SDS011;68253;52.506;5.486;2024-03-17T08:38:31;12.30;;;4.65;;
78875;SDS011;68253;52.506;5.486;2024-03-17T08:40:58;12.48;;;4.80;;
78875;SDS011;68253;52.506;5.486;2024-03-17T08:43:31;10.45;;;4.35;;
78875;SDS011;68253;52.506;5.486;2024-03-17T08:46:04;12.13;;;5.10;;
78875;SDS011;68253;52.506;5.486;2024-03-17T08:48:35;11.73;;;5.13;;
78875;SDS011;68253;52.506;5.486;2024-03-17T08:51:03;11.43;;;4.50;;
78875;SDS011;68253;52.506;5.486;2024-03-17T08:53:30;10.60;;;4.55;;
78875;SDS011;68253;52.506;5.486;2024-03-17T08:55:56;13.00;;;5.55;;
78875;SDS011;68253;52.506;5.486;2024-03-17T08:58:24;11.15;;;4.45;;
78875;SDS011;68253;52.506;5.486;2024-03-17T09:00:51;10.68;;;4.00;;
78875;SDS011;68253;52.506;5.486;2024-03-17T09:03:17;10.00;;;4.30;;
78875;SDS011;68253;52.506;5.486;2024-03-17T09:05:45;10.05;;;4.15;;
78875;SDS011;68253;52.506;5.486;2024-03-17T09:08:19;9.45;;;4.07;;
78875;SDS011;68253;52.506;5.486;2024-03-17T09:10:49;10.95;;;4.38;;
78875;SDS011;68253;52.506;5.486;2024-03-17T09:13:21;12.35;;;4.07;;
78875;SDS011;68253;52.506;5.486;2024-03-17T09:15:56;9.35;;;3.45;;
78875;SDS011;68253;52.506;5.486;2024-03-17T09:18:28;10.15;;;3.95;;
78875;SDS011;68253;52.506;5.486;2024-03-17T09:21:02;11.98;;;4.93;;
78875;SDS011;68253;52.506;5.486;2024-03-17T09:23:30;10.55;;;3.85;;
78875;SDS011;68253;52.506;5.486;2024-03-17T09:28:29;9.77;;;3.80;;
78875;SDS011;68253;52.506;5.486;2024-03-17T09:30:57;11.35;;;4.03;;
78875;SDS011;68253;52.506;5.486;2024-03-17T09:33:24;10.63;;;3.90;;
78875;SDS011;68253;52.506;5.486;2024-03-17T09:38:31;10.85;;;3.97;;
78875;SDS011;68253;52.506;5.486;2024-03-17T09:40:58;9.48;;;3.95;;
78875;SDS011;68253;52.506;5.486;2024-03-17T09:43:28;12.13;;;3.92;;
78875;SDS011;68253;52.506;5.486;2024-03-17T09:45:57;10.95;;;4.20;;
78875;SDS011;68253;52.506;5.486;2024-03-17T09:48:24;8.75;;;3.50;;
78875;SDS011;68253;52.506;5.486;2024-03-17T09:50:51;8.35;;;3.20;;
78875;SDS011;68253;52.506;5.486;2024-03-17T09:53:31;11.10;;;3.63;;
78875;SDS011;68253;52.506;5.486;2024-03-17T09:56:01;9.73;;;3.72;;
78875;SDS011;68253;52.506;5.486;2024-03-17T09:58:41;9.48;;;3.45;;
78875;SDS011;68253;52.506;5.486;2024-03-17T10:01:07;12.32;;;3.78;;
78875;SDS011;68253;52.506;5.486;2024-03-17T10:06:09;10.27;;;3.10;;
78875;SDS011;68253;52.506;5.486;2024-03-17T10:08:42;9.40;;;3.25;;
78875;SDS011;68253;52.506;5.486;2024-03-17T10:11:10;8.38;;;3.42;;
78875;SDS011;68253;52.506;5.486;2024-03-17T10:13:37;8.80;;;3.13;;
78875;SDS011;68253;52.506;5.486;2024-03-17T10:16:03;9.57;;;3.10;;
78875;SDS011;68253;52.506;5.486;2024-03-17T10:18:30;8.77;;;3.38;;
78875;SDS011;68253;52.506;5.486;2024-03-17T10:20:56;9.18;;;3.22;;
78875;SDS011;68253;52.506;5.486;2024-03-17T10:23:25;8.48;;;3.35;;
78875;SDS011;68253;52.506;5.486;2024-03-17T10:25:52;9.13;;;3.53;;
78875;SDS011;68253;52.506;5.486;2024-03-17T10:28:18;10.10;;;3.40;;
78875;SDS011;68253;52.506;5.486;2024-03-17T10:30:59;8.73;;;3.28;;
78875;SDS011;68253;52.506;5.486;2024-03-17T10:33:26;8.18;;;3.08;;
78875;SDS011;68253;52.506;5.486;2024-03-17T10:35:59;9.48;;;3.47;;
78875;SDS011;68253;52.506;5.486;2024-03-17T10:38:27;8.43;;;3.42;;
78875;SDS011;68253;52.506;5.486;2024-03-17T10:40:54;9.07;;;3.53;;
78875;SDS011;68253;52.506;5.486;2024-03-17T10:43:20;8.00;;;2.85;;
78875;SDS011;68253;52.506;5.486;2024-03-17T10:45:53;9.50;;;3.13;;
78875;SDS011;68253;52.506;5.486;2024-03-17T10:50:48;7.80;;;2.40;;
78875;SDS011;68253;52.506;5.486;2024-03-17T10:53:16;7.70;;;2.47;;
78875;SDS011;68253;52.506;5.486;2024-03-17T10:55:53;8.80;;;3.03;;
78875;SDS011;68253;52.506;5.486;2024-03-17T10:58:35;9.93;;;3.15;;
78875;SDS011;68253;52.506;5.486;2024-03-17T11:01:04;10.15;;;2.83;;
78875;SDS011;68253;52.506;5.486;2024-03-17T11:03:34;8.73;;;2.83;;
78875;SDS011;68253;52.506;5.486;2024-03-17T11:06:02;10.15;;;3.40;;
78875;SDS011;68253;52.506;5.486;2024-03-17T11:08:31;10.35;;;3.08;;
78875;SDS011;68253;52.506;5.486;2024-03-17T11:10:58;7.78;;;2.97;;
78875;SDS011;68253;52.506;5.486;2024-03-17T11:13:26;9.60;;;3.33;;
78875;SDS011;68253;52.506;5.486;2024-03-17T11:15:54;11.65;;;4.05;;
78875;SDS011;68253;52.506;5.486;2024-03-17T11:18:33;11.35;;;4.35;;
78875;SDS011;68253;52.506;5.486;2024-03-17T11:23:33;10.30;;;4.35;;
78875;SDS011;68253;52.506;5.486;2024-03-17T11:25:59;12.20;;;4.20;;
78875;SDS011;68253;52.506;5.486;2024-03-17T11:33:59;11.55;;;4.82;;
78875;SDS011;68253;52.506;5.486;2024-03-17T11:39:02;9.98;;;4.13;;
78875;SDS011;68253;52.506;5.486;2024-03-17T11:41:53;10.75;;;4.03;;
78875;SDS011;68253;52.506;5.486;2024-03-17T11:46:56;11.52;;;4.38;;
78875;SDS011;68253;52.506;5.486;2024-03-17T11:49:28;9.07;;;3.70;;
78875;SDS011;68253;52.506;5.486;2024-03-17T11:52:05;9.70;;;3.97;;
78875;SDS011;68253;52.506;5.486;2024-03-17T11:54:39;9.45;;;3.92;;
78875;SDS011;68253;52.506;5.486;2024-03-17T11:57:08;10.63;;;4.50;;
78875;SDS011;68253;52.506;5.486;2024-03-17T11:59:37;12.45;;;4.32;;
78875;SDS011;68253;52.506;5.486;2024-03-17T12:02:20;9.98;;;4.13;;
78875;SDS011;68253;52.506;5.486;2024-03-17T12:04:48;9.50;;;4.03;;
78875;SDS011;68253;52.506;5.486;2024-03-17T12:07:16;9.40;;;4.22;;
78875;SDS011;68253;52.506;5.486;2024-03-17T12:09:44;10.55;;;3.90;;
78875;SDS011;68253;52.506;5.486;2024-03-17T12:12:20;10.60;;;3.97;;
78875;SDS011;68253;52.506;5.486;2024-03-17T12:14:48;11.82;;;4.40;;
78875;SDS011;68253;52.506;5.486;2024-03-17T12:17:23;9.00;;;3.83;;
78875;SDS011;68253;52.506;5.486;2024-03-17T12:19:50;10.23;;;4.20;;
78875;SDS011;68253;52.506;5.486;2024-03-17T12:22:21;11.35;;;3.58;;
78875;SDS011;68253;52.506;5.486;2024-03-17T12:24:49;10.45;;;4.38;;
78875;SDS011;68253;52.506;5.486;2024-03-17T12:27:19;11.20;;;4.38;;
78875;SDS011;68253;52.506;5.486;2024-03-17T12:29:47;11.18;;;4.20;;
78875;SDS011;68253;52.506;5.486;2024-03-17T12:34:50;10.48;;;4.00;;
78875;SDS011;68253;52.506;5.486;2024-03-17T12:39:47;9.02;;;4.10;;
78875;SDS011;68253;52.506;5.486;2024-03-17T12:42:15;9.38;;;4.20;;
78875;SDS011;68253;52.506;5.486;2024-03-17T12:44:49;11.60;;;4.97;;
78875;SDS011;68253;52.506;5.486;2024-03-17T12:47:17;11.80;;;4.55;;
78875;SDS011;68253;52.506;5.486;2024-03-17T12:49:57;12.35;;;4.97;;
78875;SDS011;68253;52.506;5.486;2024-03-17T12:52:24;10.75;;;4.70;;
78875;SDS011;68253;52.506;5.486;2024-03-17T12:55:04;9.75;;;4.55;;
78875;SDS011;68253;52.506;5.486;2024-03-17T13:01:03;11.25;;;4.60;;
78875;SDS011;68253;52.506;5.486;2024-03-17T13:03:35;10.38;;;4.60;;
78875;SDS011;68253;52.506;5.486;2024-03-17T13:06:02;11.10;;;3.95;;
78875;SDS011;68253;52.506;5.486;2024-03-17T13:08:32;11.90;;;4.53;;
78875;SDS011;68253;52.506;5.486;2024-03-17T13:10:59;10.90;;;4.85;;
78875;SDS011;68253;52.506;5.486;2024-03-17T13:13:25;10.93;;;4.78;;
78875;SDS011;68253;52.506;5.486;2024-03-17T13:15:52;10.38;;;4.38;;
78875;SDS011;68253;52.506;5.486;2024-03-17T13:18:18;10.95;;;4.68;;
78875;SDS011;68253;52.506;5.486;2024-03-17T13:20:48;13.52;;;4.97;;
78875;SDS011;68253;52.506;5.486;2024-03-17T13:23:19;10.75;;;4.50;;
78875;SDS011;68253;52.506;5.486;2024-03-17T13:25:50;11.80;;;4.50;;
78875;SDS011;68253;52.506;5.486;2024-03-17T13:28:16;11.20;;;4.28;;
78875;SDS011;68253;52.506;5.486;2024-03-17T13:30:42;11.35;;;4.60;;
78875;SDS011;68253;52.506;5.486;2024-03-17T13:33:09;11.23;;;4.65;;
78875;SDS011;68253;52.506;5.486;2024-03-17T13:35:37;11.15;;;4.57;;
78875;SDS011;68253;52.506;5.486;2024-03-17T13:38:08;14.48;;;5.35;;
78875;SDS011;68253;52.506;5.486;2024-03-17T13:40:36;12.73;;;4.90;;
78875;SDS011;68253;52.506;5.486;2024-03-17T13:43:04;11.38;;;4.78;;
78875;SDS011;68253;52.506;5.486;2024-03-17T13:45:42;10.68;;;4.38;;
78875;SDS011;68253;52.506;5.486;2024-03-17T13:48:09;10.45;;;4.65;;
78875;SDS011;68253;52.506;5.486;2024-03-17T13:50:38;10.90;;;4.32;;
78875;SDS011;68253;52.506;5.486;2024-03-17T13:53:07;11.90;;;4.95;;
78875;SDS011;68253;52.506;5.486;2024-03-17T13:55:33;9.75;;;4.13;;
78875;SDS011;68253;52.506;5.486;2024-03-17T13:58:00;15.27;;;4.47;;
78875;SDS011;68253;52.506;5.486;2024-03-17T14:00:28;10.38;;;3.63;;
78875;SDS011;68253;52.506;5.486;2024-03-17T14:03:01;9.90;;;4.05;;
78875;SDS011;68253;52.506;5.486;2024-03-17T14:05:27;9.10;;;3.67;;
78875;SDS011;68253;52.506;5.486;2024-03-17T14:07:54;9.07;;;3.13;;
78875;SDS011;68253;52.506;5.486;2024-03-17T14:10:21;10.35;;;3.47;;
78875;SDS011;68253;52.506;5.486;2024-03-17T14:12:49;11.93;;;3.45;;
78875;SDS011;68253;52.506;5.486;2024-03-17T14:15:16;9.95;;;3.67;;
78875;SDS011;68253;52.506;5.486;2024-03-17T14:17:44;9.95;;;3.47;;
78875;SDS011;68253;52.506;5.486;2024-03-17T14:20:11;9.32;;;3.28;;
78875;SDS011;68253;52.506;5.486;2024-03-17T14:22:39;10.38;;;3.45;;
78875;SDS011;68253;52.506;5.486;2024-03-17T14:25:08;9.60;;;3.17;;
78875;SDS011;68253;52.506;5.486;2024-03-17T14:27:42;13.05;;;4.80;;
78875;SDS011;68253;52.506;5.486;2024-03-17T14:30:08;9.13;;;3.28;;
78875;SDS011;68253;52.506;5.486;2024-03-17T14:32:38;8.93;;;3.70;;
78875;SDS011;68253;52.506;5.486;2024-03-17T14:35:05;8.82;;;3.60;;
78875;SDS011;68253;52.506;5.486;2024-03-17T14:37:31;10.90;;;4.13;;
78875;SDS011;68253;52.506;5.486;2024-03-17T14:39:58;11.13;;;4.07;;
78875;SDS011;68253;52.506;5.486;2024-03-17T14:42:25;10.48;;;4.10;;
78875;SDS011;68253;52.506;5.486;2024-03-17T14:44:51;9.98;;;3.92;;
78875;SDS011;68253;52.506;5.486;2024-03-17T14:47:17;11.35;;;4.10;;
78875;SDS011;68253;52.506;5.486;2024-03-17T14:49:43;10.55;;;4.10;;
78875;SDS011;68253;52.506;5.486;2024-03-17T14:52:11;9.57;;;3.83;;
78875;SDS011;68253;52.506;5.486;2024-03-17T14:54:37;10.98;;;3.75;;
78875;SDS011;68253;52.506;5.486;2024-03-17T14:57:03;10.13;;;4.13;;
78875;SDS011;68253;52.506;5.486;2024-03-17T14:59:29;10.38;;;4.07;;
78875;SDS011;68253;52.506;5.486;2024-03-17T15:01:55;11.75;;;4.47;;
78875;SDS011;68253;52.506;5.486;2024-03-17T15:04:21;11.95;;;4.05;;
78875;SDS011;68253;52.506;5.486;2024-03-17T15:06:47;10.90;;;3.95;;
78875;SDS011;68253;52.506;5.486;2024-03-17T15:09:13;11.93;;;3.97;;
78875;SDS011;68253;52.506;5.486;2024-03-17T15:11:44;10.73;;;4.22;;
78875;SDS011;68253;52.506;5.486;2024-03-17T15:14:12;10.32;;;4.03;;
78875;SDS011;68253;52.506;5.486;2024-03-17T15:16:38;9.93;;;4.70;;
78875;SDS011;68253;52.506;5.486;2024-03-17T15:19:05;9.90;;;3.78;;
78875;SDS011;68253;52.506;5.486;2024-03-17T15:21:32;11.80;;;4.15;;